Time;durP1;ratioP1;P1;durP2;ratioP2;P2;SDS_P1;SDS_P2;PMS_P1;PMS_P2;Temp;Humidity;BMP_temperature;BMP_pressure;BME280_temperature;BME280_humidity;BME280_pressure;Samples;Min_cycle;Max_cycle;Signal;HPM_P1;HPM_P2
2022/07/22 00:02:10;;;;;;;1.00;0.10;;;23.70;60.40;;;;;;5112723;28;20043;-79
2022/07/22 00:04:36;;;;;;;0.60;0.10;;;23.80;60.40;;;;;;5111574;28;20368;-79
2022/07/22 00:07:02;;;;;;;0.70;0.10;;;23.70;60.40;;;;;;5111379;28;20050;-79
2022/07/22 00:09:27;;;;;;;0.35;0.10;;;23.70;60.30;;;;;;5111929;28;20039;-79
2022/07/22 00:11:53;;;;;;;1.60;0.10;;;23.70;60.30;;;;;;5111526;28;20073;-79
2022/07/22 00:14:19;;;;;;;0.82;0.35;;;23.70;60.40;;;;;;5111328;28;20501;-80
2022/07/22 00:16:44;;;;;;;0.60;0.10;;;23.70;60.30;;;;;;5111229;28;20096;-79
2022/07/22 00:19:10;;;;;;;1.23;0.20;;;23.70;60.30;;;;;;5094353;28;20040;-79
2022/07/22 00:21:36;;;;;;;1.90;0.17;;;23.70;60.30;;;;;;5111414;28;20035;-79
2022/07/22 00:24:02;;;;;;;1.50;0.20;;;23.70;60.30;;;;;;5112444;28;20031;-79
2022/07/22 00:26:31;;;;;;;1.25;0.20;;;23.70;60.30;;;;;;5112421;28;20036;-79
2022/07/22 00:28:56;;;;;;;0.80;0.20;;;23.70;60.30;;;;;;5111054;28;20497;-79
2022/07/22 00:31:22;;;;;;;2.10;0.20;;;23.70;60.20;;;;;;5110916;28;20031;-79
2022/07/22 00:33:47;;;;;;;0.85;0.20;;;23.70;60.20;;;;;;5110806;28;20051;-79
2022/07/22 00:36:13;;;;;;;0.38;0.10;;;23.70;60.20;;;;;;5111315;28;20134;-79
2022/07/22 00:38:39;;;;;;;0.55;0.10;;;23.70;60.20;;;;;;5111280;28;20414;-79
2022/07/22 00:41:05;;;;;;;1.10;0.20;;;23.70;60.20;;;;;;5111250;28;20554;-79
2022/07/22 00:43:58;;;;;;;0.50;0.10;;;23.60;60.10;;;;;;5111139;28;20040;-79
2022/07/22 00:46:24;;;;;;;1.60;0.10;;;23.60;60.10;;;;;;5111168;28;20063;-79
2022/07/22 00:48:50;;;;;;;1.02;0.13;;;23.70;60.20;;;;;;5111188;28;20483;-79
2022/07/22 00:51:17;;;;;;;0.85;0.20;;;23.60;60.10;;;;;;5110984;28;20123;-79
2022/07/22 00:53:44;;;;;;;0.85;0.20;;;23.60;60.10;;;;;;5110985;28;20050;-79
2022/07/22 00:56:10;;;;;;;0.98;0.20;;;23.70;60.10;;;;;;5110884;28;20051;-79
2022/07/22 00:58:36;;;;;;;1.58;0.20;;;23.60;60.10;;;;;;5111059;28;20067;-79
2022/07/22 01:01:02;;;;;;;1.35;0.28;;;23.60;60.10;;;;;;5111104;28;20493;-83
2022/07/22 01:03:28;;;;;;;0.68;0.20;;;23.60;60.10;;;;;;5110773;28;20126;-79
2022/07/22 01:05:53;;;;;;;1.42;0.15;;;23.60;60.10;;;;;;5110817;28;20131;-79
2022/07/22 01:08:19;;;;;;;0.95;0.20;;;23.60;60.00;;;;;;5110650;28;20054;-80
2022/07/22 01:10:45;;;;;;;0.90;0.10;;;23.60;60.00;;;;;;5110731;28;20054;-79
2022/07/22 01:13:10;;;;;;;1.38;0.15;;;23.60;60.00;;;;;;5110787;28;20036;-80
2022/07/22 01:15:36;;;;;;;2.95;0.32;;;23.60;60.00;;;;;;5110644;28;20023;-80
2022/07/22 01:18:02;;;;;;;0.80;0.30;;;23.60;60.00;;;;;;5111962;28;20043;-79
2022/07/22 01:20:28;;;;;;;1.52;0.20;;;23.60;60.00;;;;;;5110586;28;20415;-79
2022/07/22 01:22:53;;;;;;;1.15;0.20;;;23.60;60.00;;;;;;5110596;28;20036;-79
2022/07/22 01:25:19;;;;;;;0.65;0.15;;;23.50;60.00;;;;;;5110447;28;20048;-80
2022/07/22 01:27:47;;;;;;;0.63;0.20;;;23.60;60.00;;;;;;5110825;28;20050;-79
2022/07/22 01:30:13;;;;;;;2.28;0.20;;;23.60;59.90;;;;;;5110568;28;20130;-80
2022/07/22 01:32:39;;;;;;;1.08;0.20;;;23.60;59.90;;;;;;5110554;28;20127;-80
2022/07/22 01:35:08;;;;;;;1.38;0.20;;;23.50;59.90;;;;;;5110161;28;20070;-80
2022/07/22 01:37:34;;;;;;;0.85;0.20;;;23.50;59.90;;;;;;5110684;28;20390;-79
2022/07/22 01:40:00;;;;;;;0.88;0.20;;;23.50;59.90;;;;;;5111562;28;20040;-79
2022/07/22 01:42:25;;;;;;;0.98;0.10;;;23.50;59.80;;;;;;5113648;28;20394;-80
2022/07/22 01:44:51;;;;;;;2.28;0.30;;;23.50;59.80;;;;;;5114311;28;20122;-80
2022/07/22 01:47:17;;;;;;;0.73;0.15;;;23.50;59.70;;;;;;5116226;28;20115;-80
2022/07/22 01:49:42;;;;;;;2.47;0.20;;;23.50;59.70;;;;;;5114706;28;20067;-79
2022/07/22 01:52:08;;;;;;;1.40;0.20;;;23.50;59.70;;;;;;5114011;28;20402;-79
2022/07/22 01:54:34;;;;;;;0.98;0.30;;;23.50;59.70;;;;;;5113825;28;20118;-80
2022/07/22 01:57:03;;;;;;;0.50;0.10;;;23.50;59.70;;;;;;5115164;28;20053;-80
2022/07/22 01:59:29;;;;;;;1.05;0.13;;;23.50;59.70;;;;;;5114123;28;20068;-79
2022/07/22 02:01:54;;;;;;;1.70;0.20;;;23.50;59.70;;;;;;5114088;28;20610;-79
2022/07/22 02:04:20;;;;;;;1.13;0.32;;;23.50;59.70;;;;;;5113757;28;20130;-79
2022/07/22 02:06:46;;;;;;;0.70;0.10;;;23.50;59.70;;;;;;5113960;28;20043;-80
2022/07/22 02:09:12;;;;;;;2.63;0.13;;;23.40;59.60;;;;;;5113705;28;20410;-80
2022/07/22 02:11:37;;;;;;;0.30;0.10;;;23.50;59.70;;;;;;5113586;28;20050;-80
2022/07/22 02:14:03;;;;;;;1.20;0.30;;;23.50;59.70;;;;;;5113941;28;20042;-79
2022/07/22 02:16:29;;;;;;;2.35;0.60;;;23.50;59.70;;;;;;5114088;28;20036;-81
2022/07/22 02:18:58;;;;;;;1.05;0.52;;;23.50;59.70;;;;;;5113832;28;20089;-80
2022/07/22 02:21:23;;;;;;;1.45;0.20;;;23.50;59.80;;;;;;5114655;28;20067;-79
2022/07/22 02:23:49;;;;;;;1.95;0.20;;;23.40;59.50;;;;;;5113437;28;20502;-79
2022/07/22 02:26:15;;;;;;;0.50;0.10;;;23.50;59.60;;;;;;5113261;28;20042;-81
2022/07/22 02:28:41;;;;;;;1.15;0.10;;;23.40;59.50;;;;;;5113598;28;20052;-79
2022/07/22 02:31:07;;;;;;;2.90;0.22;;;23.40;59.50;;;;;;5113296;28;20119;-80
2022/07/22 02:33:35;;;;;;;1.15;0.20;;;23.40;59.40;;;;;;5113252;28;20084;-80
2022/07/22 02:36:01;;;;;;;1.05;0.40;;;23.40;59.50;;;;;;5113057;28;20054;-80
2022/07/22 02:38:26;;;;;;;1.48;0.20;;;23.50;59.50;;;;;;5114362;28;20393;-80
2022/07/22 02:40:53;;;;;;;0.80;0.30;;;23.50;59.50;;;;;;5113154;28;20036;-80
2022/07/22 02:43:19;;;;;;;2.80;0.20;;;23.40;59.40;;;;;;5113245;28;20031;-79
2022/07/22 02:45:45;;;;;;;1.00;0.20;;;23.40;59.40;;;;;;5114458;28;20043;-79
2022/07/22 02:48:11;;;;;;;2.35;0.30;;;23.40;59.40;;;;;;5112799;28;20036;-79
2022/07/22 02:50:37;;;;;;;1.35;0.17;;;23.40;59.40;;;;;;5114155;28;20034;-79
2022/07/22 02:53:03;;;;;;;1.30;0.30;;;23.40;59.30;;;;;;5113241;28;20440;-80
2022/07/22 02:55:29;;;;;;;0.82;0.40;;;23.40;59.40;;;;;;5113148;28;20055;-79
2022/07/22 02:57:54;;;;;;;0.90;0.10;;;23.40;60.00;;;;;;5113966;28;20059;-80
2022/07/22 03:00:20;;;;;;;1.00;0.20;;;23.40;59.30;;;;;;5112863;28;20035;-79
2022/07/22 03:02:45;;;;;;;1.00;0.50;;;23.40;59.20;;;;;;5112791;28;20035;-80
2022/07/22 03:05:12;;;;;;;0.40;0.15;;;23.40;59.30;;;;;;5113388;28;20032;-79
2022/07/22 03:07:38;;;;;;;0.73;0.20;;;23.40;59.20;;;;;;5113070;28;20125;-79
2022/07/22 03:10:04;;;;;;;0.95;0.20;;;23.40;59.30;;;;;;5112479;28;20039;-80
2022/07/22 03:12:30;;;;;;;1.27;0.10;;;23.40;59.20;;;;;;5112354;28;20058;-79
2022/07/22 03:14:55;;;;;;;1.08;0.20;;;23.40;59.20;;;;;;5112538;28;20040;-79
2022/07/22 03:17:21;;;;;;;1.27;0.30;;;23.40;59.20;;;;;;5112311;28;20058;-79
2022/07/22 03:19:47;;;;;;;1.33;0.20;;;23.30;59.10;;;;;;5113630;28;20031;-80
2022/07/22 03:22:12;;;;;;;2.58;0.20;;;23.40;59.20;;;;;;5112252;28;20533;-80
2022/07/22 03:24:41;;;;;;;1.55;0.22;;;23.30;59.10;;;;;;5112170;28;20088;-79
2022/07/22 03:27:06;;;;;;;0.75;0.10;;;23.30;59.10;;;;;;5112265;28;20061;-80
2022/07/22 03:29:32;;;;;;;0.50;0.10;;;23.30;59.10;;;;;;5112363;28;20133;-80
2022/07/22 03:31:58;;;;;;;1.85;0.20;;;23.30;59.10;;;;;;5113504;28;20036;-80
2022/07/22 03:34:24;;;;;;;0.77;0.20;;;23.30;59.00;;;;;;5111582;28;20564;-80
2022/07/22 03:36:50;;;;;;;0.98;0.30;;;23.40;59.10;;;;;;5112251;28;20150;-80
2022/07/22 03:39:15;;;;;;;0.95;0.20;;;23.30;59.00;;;;;;5111791;28;20546;-79
2022/07/22 03:41:41;;;;;;;0.60;0.20;;;23.30;59.00;;;;;;5112152;28;20048;-80
2022/07/22 03:44:06;;;;;;;0.60;0.10;;;23.30;59.00;;;;;;5111746;28;20040;-80
2022/07/22 03:46:32;;;;;;;0.40;0.10;;;23.30;58.90;;;;;;5111833;28;20122;-79
2022/07/22 03:48:58;;;;;;;2.92;0.20;;;23.30;58.90;;;;;;5113029;28;20114;-80
2022/07/22 03:51:23;;;;;;;1.05;0.20;;;23.30;58.90;;;;;;5112006;28;20505;-79
2022/07/22 03:53:49;;;;;;;1.85;0.20;;;23.30;58.90;;;;;;5113412;28;20506;-79
2022/07/22 03:56:15;;;;;;;1.17;0.20;;;23.30;58.90;;;;;;5112894;28;20086;-80
2022/07/22 03:58:41;;;;;;;1.15;0.30;;;23.30;58.90;;;;;;5111554;28;20501;-80
2022/07/22 04:01:06;;;;;;;0.95;0.20;;;23.30;58.90;;;;;;5111778;28;20036;-79
2022/07/22 04:03:32;;;;;;;0.90;0.20;;;23.20;58.80;;;;;;5111564;28;20442;-80
2022/07/22 04:05:58;;;;;;;0.88;0.20;;;23.30;58.80;;;;;;5111022;28;20036;-79
2022/07/22 04:08:24;;;;;;;0.95;0.20;;;23.30;58.80;;;;;;5112845;28;20093;-80
2022/07/22 04:10:49;;;;;;;1.25;0.55;;;23.30;58.80;;;;;;5111585;28;20395;-79
2022/07/22 04:13:15;;;;;;;2.35;0.30;;;23.30;58.80;;;;;;5111361;28;20520;-79
2022/07/22 04:15:41;;;;;;;0.77;0.20;;;23.20;58.70;;;;;;5111387;28;20126;-80
2022/07/22 04:18:06;;;;;;;0.85;0.10;;;23.20;58.70;;;;;;5112677;28;20493;-80
2022/07/22 04:20:32;;;;;;;0.80;0.22;;;23.20;58.70;;;;;;5111152;28;20400;-80
2022/07/22 04:22:58;;;;;;;0.82;0.47;;;23.20;58.70;;;;;;5111188;28;20046;-79
2022/07/22 04:25:24;;;;;;;1.27;0.20;;;23.20;58.70;;;;;;5111126;28;20505;-79
2022/07/22 04:27:50;;;;;;;0.52;0.13;;;23.30;58.70;;;;;;5111372;28;20126;-80
2022/07/22 04:30:16;;;;;;;1.42;0.20;;;23.20;58.70;;;;;;5111116;28;20075;-80
2022/07/22 04:32:42;;;;;;;0.90;0.10;;;23.20;58.70;;;;;;5112593;28;20075;-80
2022/07/22 04:35:07;;;;;;;2.25;0.45;;;23.20;58.70;;;;;;5110702;28;20044;-80
2022/07/22 04:37:33;;;;;;;1.40;0.20;;;23.20;58.60;;;;;;5111067;28;20040;-80
2022/07/22 04:39:59;;;;;;;1.33;0.20;;;23.20;58.60;;;;;;5111016;28;20035;-80
2022/07/22 04:42:24;;;;;;;1.75;0.20;;;23.20;58.60;;;;;;5112217;28;20028;-80
2022/07/22 04:44:50;;;;;;;0.95;0.20;;;23.20;58.60;;;;;;5111200;28;20043;-80
2022/07/22 04:47:16;;;;;;;0.60;0.20;;;23.20;58.50;;;;;;5110960;28;20074;-80
2022/07/22 04:49:41;;;;;;;1.25;0.20;;;23.20;58.50;;;;;;5111276;28;20112;-80
2022/07/22 04:52:08;;;;;;;0.77;0.17;;;23.20;58.50;;;;;;5112428;28;20062;-80
2022/07/22 04:54:34;;;;;;;1.88;0.20;;;23.20;58.50;;;;;;5110897;28;20044;-80
2022/07/22 04:57:00;;;;;;;0.70;0.20;;;23.20;58.40;;;;;;5112600;28;20044;-80
2022/07/22 04:59:26;;;;;;;0.57;0.32;;;23.20;58.50;;;;;;5111129;28;20541;-80
2022/07/22 05:01:51;;;;;;;0.55;0.22;;;23.20;58.40;;;;;;5111059;28;20528;-79
2022/07/22 05:04:20;;;;;;;0.77;0.20;;;23.20;58.40;;;;;;5110811;28;20427;-79
2022/07/22 05:06:45;;;;;;;0.63;0.20;;;23.20;58.40;;;;;;5110785;28;20044;-80
2022/07/22 05:09:11;;;;;;;1.52;0.20;;;23.20;58.40;;;;;;5111015;28;20047;-79
2022/07/22 05:11:37;;;;;;;0.50;0.10;;;23.20;58.40;;;;;;5110903;28;20043;-80
2022/07/22 05:14:02;;;;;;;0.68;0.20;;;23.20;58.30;;;;;;5111935;28;20043;-79
2022/07/22 05:16:31;;;;;;;1.15;0.57;;;23.10;58.30;;;;;;5112264;28;20039;-80
2022/07/22 05:18:56;;;;;;;3.13;0.20;;;23.10;58.30;;;;;;5115000;28;20390;-79
2022/07/22 05:21:22;;;;;;;1.00;0.15;;;23.10;58.20;;;;;;5114798;28;20040;-79
2022/07/22 05:23:48;;;;;;;1.55;0.20;;;23.20;58.30;;;;;;5114599;28;20036;-81
2022/07/22 05:26:13;;;;;;;0.93;0.20;;;23.10;58.20;;;;;;5116019;28;20043;-80
2022/07/22 05:28:39;;;;;;;0.45;0.15;;;23.10;58.20;;;;;;5115737;28;20047;-80
2022/07/22 05:31:05;;;;;;;0.85;0.13;;;23.10;59.00;;;;;;5114698;28;20087;-80
2022/07/22 05:33:31;;;;;;;0.60;0.22;;;23.10;58.20;;;;;;5114095;28;20039;-79
2022/07/22 05:35:56;;;;;;;0.70;0.20;;;23.10;58.10;;;;;;5114317;28;20116;-80
2022/07/22 05:38:22;;;;;;;2.05;0.20;;;23.10;58.90;;;;;;5114499;28;20040;-80
2022/07/22 05:40:48;;;;;;;1.30;0.20;;;23.10;58.80;;;;;;5114560;28;20393;-80
2022/07/22 05:43:16;;;;;;;0.50;0.10;;;23.10;58.10;;;;;;5114208;28;20118;-80
2022/07/22 05:45:42;;;;;;;0.98;0.20;;;23.10;58.00;;;;;;5114470;28;20102;-80
2022/07/22 05:48:07;;;;;;;1.40;0.40;;;23.10;58.00;;;;;;5114393;28;20486;-80
2022/07/22 05:50:36;;;;;;;1.30;0.20;;;23.10;58.00;;;;;;5114345;28;20048;-80
2022/07/22 05:53:02;;;;;;;1.67;0.20;;;23.10;58.00;;;;;;5114272;28;20039;-79
2022/07/22 05:55:27;;;;;;;0.77;0.13;;;23.10;58.00;;;;;;5115345;28;20391;-80
2022/07/22 05:57:53;;;;;;;1.13;0.30;;;23.10;58.00;;;;;;5113890;28;20039;-80
2022/07/22 06:00:19;;;;;;;0.73;0.22;;;23.10;58.00;;;;;;5113823;28;20040;-81
2022/07/22 06:02:44;;;;;;;0.88;0.25;;;23.10;58.00;;;;;;5114072;28;20039;-80
2022/07/22 06:05:10;;;;;;;2.17;0.30;;;23.10;57.90;;;;;;5113858;28;20048;-79
2022/07/22 06:07:35;;;;;;;1.15;0.13;;;23.10;57.90;;;;;;5113754;28;20130;-80
2022/07/22 06:10:01;;;;;;;2.10;0.13;;;23.10;57.80;;;;;;5114091;28;20047;-80
2022/07/22 06:12:27;;;;;;;0.88;0.30;;;23.10;57.80;;;;;;5113968;28;20433;-80
2022/07/22 06:14:52;;;;;;;0.95;0.15;;;23.10;57.80;;;;;;5113482;28;20460;-80
2022/07/22 06:17:18;;;;;;;0.60;0.20;;;23.10;57.80;;;;;;5113721;28;20027;-79
2022/07/22 06:19:43;;;;;;;0.65;0.20;;;23.10;57.80;;;;;;5113407;28;20032;-80
2022/07/22 06:22:10;;;;;;;0.45;0.10;;;23.10;57.70;;;;;;5114214;28;20088;-80
2022/07/22 06:24:36;;;;;;;1.02;0.20;;;23.10;57.80;;;;;;5113642;28;20115;-80
2022/07/22 06:27:01;;;;;;;1.00;0.10;;;23.10;57.70;;;;;;5113561;28;20118;-80
2022/07/22 06:29:27;;;;;;;0.82;0.20;;;23.10;57.70;;;;;;5113318;28;20494;-80
2022/07/22 06:31:52;;;;;;;0.55;0.20;;;23.10;57.60;;;;;;5113504;28;20134;-80
2022/07/22 06:34:18;;;;;;;1.08;0.20;;;23.10;57.60;;;;;;5112764;28;20043;-80
2022/07/22 06:36:44;;;;;;;1.55;0.20;;;23.10;57.60;;;;;;5114644;28;20036;-80
2022/07/22 06:39:09;;;;;;;1.15;0.10;;;23.10;57.60;;;;;;5113269;28;20054;-81
2022/07/22 06:41:35;;;;;;;0.98;0.20;;;23.10;57.50;;;;;;5113183;28;20043;-80
2022/07/22 06:44:00;;;;;;;1.70;0.28;;;23.10;57.50;;;;;;5113024;28;20043;-80
2022/07/22 06:46:26;;;;;;;0.50;0.13;;;23.10;57.50;;;;;;5114166;28;20032;-80
2022/07/22 06:48:52;;;;;;;1.70;0.30;;;23.10;57.40;;;;;;5113017;28;20040;-81
2022/07/22 06:51:17;;;;;;;1.65;0.25;;;23.10;57.40;;;;;;5112792;28;20047;-80
2022/07/22 06:53:43;;;;;;;1.75;0.22;;;23.10;57.40;;;;;;5113149;28;20165;-80
2022/07/22 06:56:09;;;;;;;0.75;0.25;;;23.10;57.30;;;;;;5112719;28;20468;-80
2022/07/22 06:58:34;;;;;;;0.70;0.10;;;23.10;57.30;;;;;;5113033;28;20492;-80
2022/07/22 07:01:00;;;;;;;0.55;0.10;;;23.10;57.30;;;;;;5112995;28;20514;-80
2022/07/22 07:03:25;;;;;;;0.82;0.10;;;23.10;57.20;;;;;;5112833;28;20391;-80
2022/07/22 07:05:52;;;;;;;0.63;0.40;;;23.10;57.20;;;;;;5112823;28;20180;-80
2022/07/22 07:08:18;;;;;;;1.38;0.20;;;23.10;57.90;;;;;;5113978;28;20036;-80
2022/07/22 07:10:47;;;;;;;0.63;0.30;;;23.10;57.20;;;;;;5112702;28;20391;-80
2022/07/22 07:13:15;;;;;;;1.17;0.10;;;23.10;57.10;;;;;;5112726;28;20040;-80
2022/07/22 07:15:41;;;;;;;1.98;0.20;;;23.10;57.10;;;;;;5112370;28;20032;-80
2022/07/22 07:18:07;;;;;;;1.30;0.20;;;23.10;57.10;;;;;;5112251;28;20449;-81
2022/07/22 07:20:35;;;;;;;1.20;0.20;;;23.10;57.00;;;;;;5112388;28;20127;-80
2022/07/22 07:23:02;;;;;;;1.67;0.20;;;23.10;57.00;;;;;;5112475;28;20046;-80
2022/07/22 07:25:27;;;;;;;0.95;0.20;;;23.10;57.00;;;;;;5112370;28;20055;-80
2022/07/22 07:27:53;;;;;;;0.75;0.15;;;23.10;56.90;;;;;;5112345;28;20051;-82
2022/07/22 07:30:19;;;;;;;0.40;0.20;;;23.10;56.90;;;;;;5112133;28;20048;-80
2022/07/22 07:32:48;;;;;;;0.70;0.22;;;23.10;56.90;;;;;;5113202;28;20106;-80
2022/07/22 07:35:13;;;;;;;0.63;0.10;;;23.10;56.80;;;;;;5111743;28;20126;-80
2022/07/22 07:37:39;;;;;;;0.70;0.20;;;23.10;56.80;;;;;;5111764;28;20126;-80
2022/07/22 07:40:06;;;;;;;0.50;0.20;;;23.10;56.80;;;;;;5110290;28;20047;-80
2022/07/22 07:42:32;;;;;;;0.60;0.10;;;23.10;56.70;;;;;;5113290;28;20100;-81
2022/07/22 07:44:57;;;;;;;1.38;0.30;;;23.10;56.80;;;;;;5111936;28;20483;-80
2022/07/22 07:47:26;;;;;;;1.13;0.10;;;23.10;56.70;;;;;;5111705;28;20040;-79
2022/07/22 07:49:52;;;;;;;2.08;0.20;;;23.10;56.70;;;;;;5113059;28;20036;-80
2022/07/22 07:52:18;;;;;;;0.47;0.10;;;23.10;56.60;;;;;;5111917;28;20081;-80
2022/07/22 07:54:44;;;;;;;1.05;0.10;;;23.10;56.60;;;;;;5111654;28;20512;-80
2022/07/22 07:57:10;;;;;;;1.77;0.20;;;23.10;56.50;;;;;;5112949;28;20046;-79
2022/07/22 07:59:37;;;;;;;0.77;0.17;;;23.10;56.50;;;;;;5111687;28;20545;-80
2022/07/22 08:02:03;;;;;;;0.80;0.20;;;23.10;56.50;;;;;;5111444;28;20143;-80
2022/07/22 08:04:29;;;;;;;0.52;0.20;;;23.10;56.40;;;;;;5110687;28;20244;-78
2022/07/22 08:06:56;;;;;;;1.05;0.20;;;23.10;56.30;;;;;;5111664;28;20035;-74
2022/07/22 08:09:21;;;;;;;0.95;0.20;;;23.10;56.30;;;;;;5111722;28;20040;-72
2022/07/22 08:11:47;;;;;;;1.35;0.20;;;23.10;57.00;;;;;;5112704;28;20055;-72
2022/07/22 08:14:16;;;;;;;6.05;0.80;;;23.20;56.40;;;;;;5111480;28;20379;-75
2022/07/22 08:16:41;;;;;;;7.13;0.38;;;23.20;56.40;;;;;;5111399;28;20038;-76
2022/07/22 08:19:07;;;;;;;2.63;0.20;;;23.30;56.40;;;;;;5111612;28;20023;-76
2022/07/22 08:21:33;;;;;;;2.35;0.20;;;23.30;56.10;;;;;;5112238;28;20047;-77
2022/07/22 08:23:58;;;;;;;2.65;0.50;;;23.30;55.90;;;;;;5111355;28;20039;-77
2022/07/22 08:26:24;;;;;;;4.13;0.47;;;23.30;56.00;;;;;;5112189;28;20471;-77
2022/07/22 08:28:50;;;;;;;4.30;0.68;;;23.30;55.90;;;;;;5111341;28;20406;-77
2022/07/22 08:31:15;;;;;;;3.97;0.20;;;23.30;55.80;;;;;;5111201;28;20517;-77
2022/07/22 08:33:41;;;;;;;4.13;0.30;;;23.30;55.80;;;;;;5110938;28;20042;-76
2022/07/22 08:36:07;;;;;;;1.13;0.20;;;23.20;55.70;;;;;;5111031;28;20135;-77
2022/07/22 08:38:33;;;;;;;1.20;0.20;;;23.20;55.70;;;;;;5111312;28;20043;-77
2022/07/22 08:41:02;;;;;;;5.05;0.20;;;23.20;55.70;;;;;;5111658;28;20522;-77
2022/07/22 08:43:27;;;;;;;1.55;0.50;;;23.20;55.70;;;;;;5111240;28;20065;-77
2022/07/22 08:45:53;;;;;;;5.68;0.65;;;23.20;55.70;;;;;;5112374;28;20065;-77
2022/07/22 08:48:20;;;;;;;2.28;0.15;;;23.20;55.70;;;;;;5127928;28;20458;-77
2022/07/22 08:50:45;;;;;;;3.95;0.20;;;23.20;55.70;;;;;;5112522;28;20054;-77
2022/07/22 08:53:12;;;;;;;0.73;0.10;;;23.20;55.70;;;;;;5115354;28;20039;-77
2022/07/22 08:55:44;;;;;;;1.17;0.43;;;23.20;55.70;;;;;;5115052;28;20130;-77
2022/07/22 08:58:10;;;;;;;0.50;0.20;;;23.20;55.60;;;;;;5115218;28;20097;-78
2022/07/22 09:00:36;;;;;;;1.10;0.28;;;23.20;55.60;;;;;;5115052;28;20038;-77
2022/07/22 09:03:25;;;;;;;2.90;0.30;;;23.20;55.70;;;;;;5132058;27;20047;-77
2022/07/22 09:05:52;;;;;;;0.85;0.10;;;23.20;55.50;;;;;;5116587;27;20040;-77
2022/07/22 09:08:19;;;;;;;0.88;0.13;;;23.10;55.50;;;;;;5115155;28;20075;-77
2022/07/22 09:10:45;;;;;;;2.05;0.22;;;23.10;55.50;;;;;;5114847;28;20092;-77
2022/07/22 09:13:11;;;;;;;1.85;0.20;;;23.10;56.20;;;;;;5114904;28;20122;-76
2022/07/22 09:15:50;;;;;;;2.15;0.20;;;23.10;55.50;;;;;;5115813;28;20487;-76
2022/07/22 09:18:16;;;;;;;0.60;0.10;;;23.10;55.50;;;;;;5098088;28;20036;-77
2022/07/22 09:20:43;;;;;;;1.20;0.25;;;23.10;55.40;;;;;;5114762;28;20047;-76
2022/07/22 09:23:13;;;;;;;1.30;0.30;;;23.10;55.40;;;;;;5116067;28;20035;-77
2022/07/22 09:25:40;;;;;;;0.75;0.20;;;23.10;55.40;;;;;;5114812;28;20078;-76
2022/07/22 09:30:50;;;;;;;1.23;0.30;;;23.10;55.40;;;;;;5146103;27;1357955;-76
2022/07/22 09:33:16;;;;;;;0.95;0.20;;;23.10;55.30;;;;;;5153401;27;20057;-76
2022/07/22 09:35:43;;;;;;;0.68;0.28;;;23.10;55.30;;;;;;5153026;27;20571;-76
2022/07/22 09:38:10;;;;;;;1.42;0.20;;;23.10;55.30;;;;;;5153402;27;20189;-77
2022/07/22 09:40:39;;;;;;;1.23;0.20;;;23.10;55.20;;;;;;5152839;27;20109;-76
2022/07/22 09:43:11;;;;;;;0.88;0.30;;;23.10;55.30;;;;;;5152880;27;20041;-76
2022/07/22 09:45:49;;;;;;;1.10;0.15;;;23.10;55.20;;;;;;5152826;27;20532;-76
2022/07/22 09:48:17;;;;;;;0.60;0.10;;;23.10;55.20;;;;;;5171560;27;20034;-76
2022/07/22 09:50:43;;;;;;;1.30;0.20;;;23.10;55.20;;;;;;5171450;27;20031;-76
2022/07/22 09:53:09;;;;;;;1.48;0.20;;;23.10;55.20;;;;;;5152759;27;20073;-77
2022/07/22 09:55:38;;;;;;;1.58;0.47;;;23.10;55.10;;;;;;5152839;27;20073;-77
2022/07/22 09:58:05;;;;;;;1.55;0.10;;;23.10;55.10;;;;;;5152698;27;20043;-77
2022/07/22 10:00:31;;;;;;;1.85;0.17;;;23.10;55.10;;;;;;5152727;27;20465;-77
2022/07/22 10:03:00;;;;;;;1.45;0.20;;;23.10;55.00;;;;;;5152609;27;20070;-76
2022/07/22 10:05:30;;;;;;;1.25;0.20;;;23.10;55.00;;;;;;5152800;27;20379;-76
2022/07/22 10:07:56;;;;;;;1.75;0.20;;;23.10;55.00;;;;;;5152329;27;20049;-76
2022/07/22 10:10:25;;;;;;;0.57;0.10;;;23.10;55.00;;;;;;5152195;27;20482;-77
2022/07/22 10:12:52;;;;;;;0.90;0.10;;;23.10;55.00;;;;;;5171142;27;20105;-76
2022/07/22 10:15:19;;;;;;;1.08;0.10;;;23.10;55.00;;;;;;5152405;27;20046;-76
2022/07/22 10:17:50;;;;;;;1.55;0.20;;;23.10;55.00;;;;;;5152243;27;20030;-76
2022/07/22 10:20:20;;;;;;;0.95;0.20;;;23.10;55.00;;;;;;5152375;27;20386;-76
2022/07/22 10:22:49;;;;;;;0.50;0.10;;;23.10;55.00;;;;;;5152048;27;20502;-77
2022/07/22 10:25:15;;;;;;;0.80;0.17;;;23.10;55.00;;;;;;5171286;27;20041;-76
2022/07/22 10:30:29;;;;;;;0.63;0.10;;;23.10;55.00;;;;;;5089514;28;20755;-77
2022/07/22 10:38:24;;;;;;;1.27;0.20;;;23.10;54.90;;;;;;5089327;27;20359;-77
2022/07/22 10:43:47;;;;;;;0.57;0.10;;;23.10;54.90;;;;;;5172221;27;20408;-77
2022/07/22 10:46:14;;;;;;;1.55;0.20;;;23.10;54.70;;;;;;5132550;27;20107;-76
2022/07/22 10:51:21;;;;;;;1.25;0.20;;;23.10;54.70;;;;;;5130584;27;20708;-76
2022/07/22 10:56:35;;;;;;;1.00;0.20;;;23.10;54.70;;;;;;5152433;27;1156216;-76
2022/07/22 10:59:19;;;;;;;0.95;0.20;;;23.20;54.20;;;;;;5153363;27;20053;-76
2022/07/22 11:01:47;;;;;;;1.55;0.20;;;23.20;54.40;;;;;;5153538;27;20043;-76
2022/07/22 11:06:55;;;;;;;1.17;0.30;;;23.20;54.50;;;;;;5130342;27;20756;-76
2022/07/22 11:09:30;;;;;;;1.08;0.35;;;23.10;54.40;;;;;;5129161;27;20039;-76
2022/07/22 11:11:56;;;;;;;0.68;0.10;;;23.10;54.40;;;;;;5128980;27;20542;-76
2022/07/22 11:17:09;;;;;;;0.73;0.20;;;23.10;54.40;;;;;;5130343;27;20411;-75
2022/07/22 11:19:37;;;;;;;0.85;0.10;;;23.10;54.30;;;;;;5128981;28;20470;-76
2022/07/22 11:22:06;;;;;;;1.60;0.10;;;23.10;54.40;;;;;;5128962;28;20092;-76
2022/07/22 11:24:33;;;;;;;0.95;0.10;;;23.10;54.40;;;;;;5129048;28;20043;-75
2022/07/22 11:26:59;;;;;;;0.75;0.13;;;23.10;54.40;;;;;;5129125;27;20539;-76
2022/07/22 11:29:35;;;;;;;1.73;0.20;;;23.10;54.40;;;;;;5128766;27;20043;-76
2022/07/22 11:32:03;;;;;;;0.52;0.22;;;23.10;54.40;;;;;;5128718;28;20288;-75
2022/07/22 11:34:29;;;;;;;0.85;0.17;;;23.10;54.40;;;;;;5128747;27;20126;-75
2022/07/22 11:36:56;;;;;;;1.65;0.17;;;23.10;54.40;;;;;;5128613;28;20127;-76
2022/07/22 11:39:24;;;;;;;1.83;0.20;;;23.10;54.40;;;;;;5128451;28;20076;-75
2022/07/22 11:41:52;;;;;;;1.10;0.20;;;23.10;54.40;;;;;;5129829;27;20023;-76
2022/07/22 11:44:20;;;;;;;0.65;0.10;;;23.10;54.40;;;;;;5128359;28;20114;-75
2022/07/22 11:46:50;;;;;;;1.73;0.20;;;23.10;54.40;;;;;;5128683;28;20035;-76
2022/07/22 11:49:17;;;;;;;0.90;0.20;;;23.10;54.40;;;;;;5128614;28;20366;-76
2022/07/22 11:51:49;;;;;;;0.68;0.10;;;23.10;54.40;;;;;;5128547;28;20094;-75
2022/07/22 11:54:15;;;;;;;1.10;0.17;;;23.10;54.40;;;;;;5128524;28;20452;-75
2022/07/22 11:56:41;;;;;;;0.60;0.15;;;23.10;54.50;;;;;;5128202;28;20220;-75
2022/07/22 11:59:08;;;;;;;0.40;0.10;;;23.10;54.40;;;;;;5129543;27;20049;-75
2022/07/22 12:01:37;;;;;;;0.88;0.20;;;23.10;54.40;;;;;;5128304;28;20028;-76
2022/07/22 12:04:06;;;;;;;0.77;0.17;;;23.10;54.40;;;;;;5128127;28;20039;-75
2022/07/22 12:06:37;;;;;;;0.50;0.13;;;23.10;54.40;;;;;;5129376;27;20039;-75
2022/07/22 12:09:07;;;;;;;0.30;0.10;;;23.10;54.50;;;;;;5128043;27;20039;-76
2022/07/22 12:11:34;;;;;;;;;;;23.00;54.40;;;;;;5128454;28;20043;-77
2022/07/22 12:14:07;;;;;;;0.40;0.10;;;23.10;54.50;;;;;;5128280;28;19920;-77
2022/07/22 12:16:33;;;;;;;0.63;0.15;;;23.10;54.50;;;;;;5128938;27;20052;-77
2022/07/22 12:19:01;;;;;;;1.20;0.10;;;23.10;54.50;;;;;;5128145;28;20039;-77
2022/07/22 12:21:29;;;;;;;0.73;0.20;;;23.10;54.50;;;;;;5129037;27;20047;-76
2022/07/22 12:24:07;;;;;;;1.17;0.10;;;23.10;54.50;;;;;;5128063;27;20071;-77
2022/07/22 12:26:49;;;;;;;0.90;0.10;;;23.10;54.50;;;;;;5124423;28;20039;-76
2022/07/22 12:29:24;;;;;;;0.93;0.10;;;23.10;54.40;;;;;;5113977;28;20582;-77
2022/07/22 12:31:57;;;;;;;0.43;0.10;;;23.10;54.50;;;;;;5114129;28;20380;-77
2022/07/22 12:37:26;;;;;;;0.95;0.10;;;23.10;54.50;;;;;;5130142;27;20135;-75
2022/07/22 12:40:17;;;;;;;0.82;0.20;;;23.10;54.40;;;;;;5130278;27;20046;-75
2022/07/22 12:42:47;;;;;;;0.80;0.10;;;23.10;54.40;;;;;;5128753;28;20043;-75
2022/07/22 12:45:17;;;;;;;0.40;0.10;;;23.10;54.40;;;;;;5128955;28;20047;-75
2022/07/22 12:47:51;;;;;;;0.55;0.10;;;23.10;54.40;;;;;;5130281;27;20039;-75
2022/07/22 12:53:13;;;;;;;1.23;0.20;;;23.10;54.40;;;;;;5130217;27;20411;-75
2022/07/22 12:55:43;;;;;;;1.65;0.20;;;23.10;54.40;;;;;;5130293;27;20469;-76
2022/07/22 12:58:09;;;;;;;0.73;0.10;;;23.00;54.30;;;;;;5129208;27;20120;-75
2022/07/22 13:00:39;;;;;;;0.45;0.10;;;23.10;54.30;;;;;;5129115;28;20459;-75
2022/07/22 13:03:07;;;;;;;0.60;0.15;;;23.10;54.30;;;;;;5130044;27;20148;-75
2022/07/22 13:05:35;;;;;;;0.75;0.10;;;23.10;54.30;;;;;;5129066;28;20389;-75
2022/07/22 13:08:01;;;;;;;0.70;0.20;;;23.10;54.30;;;;;;5130037;27;20039;-75
2022/07/22 13:10:27;;;;;;;0.75;0.28;;;23.10;54.30;;;;;;5128926;28;20425;-75
2022/07/22 13:12:53;;;;;;;1.27;0.20;;;23.10;54.30;;;;;;5128507;28;20040;-75
2022/07/22 13:15:20;;;;;;;0.95;0.30;;;23.10;54.20;;;;;;5128591;28;20114;-75
2022/07/22 13:17:46;;;;;;;0.52;0.22;;;23.10;54.20;;;;;;5128514;27;20119;-75